sensor_id;sensor_type;location;lat;lon;timestamp;pressure;altitude;pressure_sealevel;temperature;humidity
75551;BME280;65071;53.082;18.218;2023-07-30T00:00:21;100370.00;;;17.75;86.12
75551;BME280;65071;53.082;18.218;2023-07-30T00:03:07;100375.63;;;17.74;87.15
75551;BME280;65071;53.082;18.218;2023-07-30T00:05:34;100377.71;;;17.70;87.29
75551;BME280;65071;53.082;18.218;2023-07-30T00:08:01;100382.42;;;17.71;87.01
75551;BME280;65071;53.082;18.218;2023-07-30T00:10:27;100383.85;;;17.71;87.30
75551;BME280;65071;53.082;18.218;2023-07-30T00:12:54;100379.90;;;17.68;86.71
75551;BME280;65071;53.082;18.218;2023-07-30T00:15:20;100384.77;;;17.67;86.42
75551;BME280;65071;53.082;18.218;2023-07-30T00:17:47;100391.44;;;17.66;86.86
75551;BME280;65071;53.082;18.218;2023-07-30T00:20:13;100389.77;;;17.65;86.59
75551;BME280;65071;53.082;18.218;2023-07-30T00:22:40;100385.86;;;17.62;87.11
75551;BME280;65071;53.082;18.218;2023-07-30T00:25:07;100389.42;;;17.61;86.37
75551;BME280;65071;53.082;18.218;2023-07-30T00:27:34;100392.98;;;17.60;86.01
75551;BME280;65071;53.082;18.218;2023-07-30T00:30:01;100394.08;;;17.59;86.46
75551;BME280;65071;53.082;18.218;2023-07-30T00:32:27;100394.87;;;17.58;86.18
75551;BME280;65071;53.082;18.218;2023-07-30T00:34:54;100400.70;;;17.56;87.11
75551;BME280;65071;53.082;18.218;2023-07-30T00:37:20;100403.22;;;17.54;87.03
75551;BME280;65071;53.082;18.218;2023-07-30T00:39:47;100404.72;;;17.54;86.82
75551;BME280;65071;53.082;18.218;2023-07-30T00:42:13;100412.33;;;17.52;86.97
75551;BME280;65071;53.082;18.218;2023-07-30T00:44:41;100408.98;;;17.51;87.08
75551;BME280;65071;53.082;18.218;2023-07-30T00:47:08;100408.46;;;17.49;87.64
75551;BME280;65071;53.082;18.218;2023-07-30T00:49:35;100406.73;;;17.48;87.29
75551;BME280;65071;53.082;18.218;2023-07-30T00:52:03;100408.48;;;17.47;87.23
75551;BME280;65071;53.082;18.218;2023-07-30T00:54:30;100413.66;;;17.47;87.26
75551;BME280;65071;53.082;18.218;2023-07-30T00:56:56;100418.45;;;17.47;87.08
75551;BME280;65071;53.082;18.218;2023-07-30T00:59:23;100420.11;;;17.46;86.97
75551;BME280;65071;53.082;18.218;2023-07-30T01:01:51;100421.19;;;17.45;87.01
75551;BME280;65071;53.082;18.218;2023-07-30T01:04:18;100416.29;;;17.44;86.93
75551;BME280;65071;53.082;18.218;2023-07-30T01:06:45;100414.07;;;17.43;86.86
75551;BME280;65071;53.082;18.218;2023-07-30T01:09:12;100420.73;;;17.43;86.96
75551;BME280;65071;53.082;18.218;2023-07-30T01:11:40;100423.01;;;17.44;86.91
75551;BME280;65071;53.082;18.218;2023-07-30T01:14:08;100420.78;;;17.44;86.92
75551;BME280;65071;53.082;18.218;2023-07-30T01:16:35;100424.35;;;17.43;86.87
75551;BME280;65071;53.082;18.218;2023-07-30T01:19:02;100423.84;;;17.43;86.72
75551;BME280;65071;53.082;18.218;2023-07-30T01:21:32;100419.23;;;17.42;86.59
75551;BME280;65071;53.082;18.218;2023-07-30T01:23:59;100420.35;;;17.42;86.72
75551;BME280;65071;53.082;18.218;2023-07-30T01:29:24;100417.00;;;17.43;86.98
75551;BME280;65071;53.082;18.218;2023-07-30T01:31:56;100417.85;;;17.43;87.12
75551;BME280;65071;53.082;18.218;2023-07-30T01:34:26;100423.09;;;17.43;86.51
75551;BME280;65071;53.082;18.218;2023-07-30T01:36:54;100419.10;;;17.43;87.07
75551;BME280;65071;53.082;18.218;2023-07-30T01:39:23;100420.64;;;17.42;87.21
75551;BME280;65071;53.082;18.218;2023-07-30T01:41:49;100425.98;;;17.42;87.17
75551;BME280;65071;53.082;18.218;2023-07-30T01:44:16;100425.31;;;17.43;87.73
75551;BME280;65071;53.082;18.218;2023-07-30T01:46:42;100429.60;;;17.43;87.31
75551;BME280;65071;53.082;18.218;2023-07-30T01:49:09;100425.52;;;17.44;86.87
75551;BME280;65071;53.082;18.218;2023-07-30T01:51:35;100425.06;;;17.43;87.44
75551;BME280;65071;53.082;18.218;2023-07-30T01:54:02;100424.55;;;17.45;87.18
75551;BME280;65071;53.082;18.218;2023-07-30T01:56:28;100423.31;;;17.47;86.83
75551;BME280;65071;53.082;18.218;2023-07-30T01:58:55;100424.56;;;17.48;86.73
75551;BME280;65071;53.082;18.218;2023-07-30T02:01:21;100426.71;;;17.49;86.77
75551;BME280;65071;53.082;18.218;2023-07-30T02:03:48;100424.73;;;17.49;86.59
75551;BME280;65071;53.082;18.218;2023-07-30T02:06:15;100417.23;;;17.48;87.28
75551;BME280;65071;53.082;18.218;2023-07-30T02:08:41;100421.00;;;17.47;87.15
75551;BME280;65071;53.082;18.218;2023-07-30T02:11:08;100420.52;;;17.44;86.69
75551;BME280;65071;53.082;18.218;2023-07-30T02:13:34;100426.19;;;17.44;86.56
75551;BME280;65071;53.082;18.218;2023-07-30T02:16:01;100427.88;;;17.44;86.67
75551;BME280;65071;53.082;18.218;2023-07-30T02:18:27;100427.29;;;17.43;86.65
75551;BME280;65071;53.082;18.218;2023-07-30T02:20:54;100433.70;;;17.43;87.01
75551;BME280;65071;53.082;18.218;2023-07-30T02:23:21;100438.91;;;17.42;86.60
75551;BME280;65071;53.082;18.218;2023-07-30T02:25:47;100440.36;;;17.40;86.96
75551;BME280;65071;53.082;18.218;2023-07-30T02:28:14;100441.46;;;17.40;87.26
75551;BME280;65071;53.082;18.218;2023-07-30T02:30:40;100443.60;;;17.42;86.86
75551;BME280;65071;53.082;18.218;2023-07-30T02:33:07;100448.05;;;17.43;87.19
75551;BME280;65071;53.082;18.218;2023-07-30T02:35:33;100442.72;;;17.42;86.81
75551;BME280;65071;53.082;18.218;2023-07-30T02:38:00;100445.48;;;17.42;86.83
75551;BME280;65071;53.082;18.218;2023-07-30T02:40:27;100440.63;;;17.43;87.20
75551;BME280;65071;53.082;18.218;2023-07-30T02:42:53;100439.54;;;17.43;87.40
75551;BME280;65071;53.082;18.218;2023-07-30T02:45:20;100439.83;;;17.44;87.17
75551;BME280;65071;53.082;18.218;2023-07-30T02:47:46;100442.98;;;17.47;87.35
75551;BME280;65071;53.082;18.218;2023-07-30T02:50:13;100440.26;;;17.48;87.09
75551;BME280;65071;53.082;18.218;2023-07-30T02:52:39;100444.26;;;17.49;86.87
75551;BME280;65071;53.082;18.218;2023-07-30T02:55:06;100445.54;;;17.51;86.92
75551;BME280;65071;53.082;18.218;2023-07-30T02:57:32;100449.20;;;17.52;86.69
75551;BME280;65071;53.082;18.218;2023-07-30T02:59:59;100452.86;;;17.53;86.57
75551;BME280;65071;53.082;18.218;2023-07-30T03:02:25;100455.67;;;17.54;86.71
75551;BME280;65071;53.082;18.218;2023-07-30T03:04:52;100448.84;;;17.56;86.98
75551;BME280;65071;53.082;18.218;2023-07-30T03:07:18;100451.08;;;17.58;86.72
75551;BME280;65071;53.082;18.218;2023-07-30T03:09:46;100445.58;;;17.60;86.67
75551;BME280;65071;53.082;18.218;2023-07-30T03:12:13;100442.02;;;17.62;86.84
75551;BME280;65071;53.082;18.218;2023-07-30T03:14:39;100439.20;;;17.64;86.76
75551;BME280;65071;53.082;18.218;2023-07-30T03:17:06;100439.38;;;17.65;86.80
75551;BME280;65071;53.082;18.218;2023-07-30T03:19:32;100440.21;;;17.66;86.71
75551;BME280;65071;53.082;18.218;2023-07-30T03:21:59;100444.79;;;17.66;86.85
75551;BME280;65071;53.082;18.218;2023-07-30T03:24:25;100441.60;;;17.66;86.95
75551;BME280;65071;53.082;18.218;2023-07-30T03:26:52;100443.19;;;17.69;86.69
75551;BME280;65071;53.082;18.218;2023-07-30T03:29:18;100447.59;;;17.73;86.65
75551;BME280;65071;53.082;18.218;2023-07-30T03:31:45;100446.75;;;17.75;86.92
75551;BME280;65071;53.082;18.218;2023-07-30T03:34:11;100448.06;;;17.78;86.72
75551;BME280;65071;53.082;18.218;2023-07-30T03:36:38;100448.78;;;17.80;86.79
75551;BME280;65071;53.082;18.218;2023-07-30T03:39:05;100443.88;;;17.83;86.81
75551;BME280;65071;53.082;18.218;2023-07-30T03:41:32;100446.27;;;17.87;86.75
75551;BME280;65071;53.082;18.218;2023-07-30T03:43:58;100451.36;;;17.91;86.47
75551;BME280;65071;53.082;18.218;2023-07-30T03:46:25;100448.97;;;17.93;86.80
75551;BME280;65071;53.082;18.218;2023-07-30T03:48:52;100448.77;;;17.96;86.83
75551;BME280;65071;53.082;18.218;2023-07-30T03:51:18;100448.59;;;17.99;86.79
75551;BME280;65071;53.082;18.218;2023-07-30T03:53:45;100446.58;;;18.03;86.73
75551;BME280;65071;53.082;18.218;2023-07-30T03:56:11;100444.31;;;18.06;86.64
75551;BME280;65071;53.082;18.218;2023-07-30T03:58:38;100448.02;;;18.10;86.84
75551;BME280;65071;53.082;18.218;2023-07-30T04:01:04;100452.63;;;18.12;86.81
75551;BME280;65071;53.082;18.218;2023-07-30T04:03:33;100455.12;;;18.14;86.69
75551;BME280;65071;53.082;18.218;2023-07-30T04:05:59;100459.05;;;18.15;86.83
75551;BME280;65071;53.082;18.218;2023-07-30T04:08:26;100465.58;;;18.18;86.72
75551;BME280;65071;53.082;18.218;2023-07-30T04:10:52;100466.04;;;18.20;86.65
75551;BME280;65071;53.082;18.218;2023-07-30T04:13:19;100463.94;;;18.22;87.08
75551;BME280;65071;53.082;18.218;2023-07-30T04:15:47;100465.29;;;18.24;86.79
75551;BME280;65071;53.082;18.218;2023-07-30T04:18:14;100458.77;;;18.25;86.49
75551;BME280;65071;53.082;18.218;2023-07-30T04:20:41;100458.48;;;18.27;86.80
75551;BME280;65071;53.082;18.218;2023-07-30T04:23:08;100465.08;;;18.30;87.02
75551;BME280;65071;53.082;18.218;2023-07-30T04:25:35;100469.61;;;18.31;86.88
75551;BME280;65071;53.082;18.218;2023-07-30T04:28:02;100473.19;;;18.33;86.84
75551;BME280;65071;53.082;18.218;2023-07-30T04:30:28;100476.27;;;18.34;86.97
75551;BME280;65071;53.082;18.218;2023-07-30T04:32:55;100477.10;;;18.36;86.85
75551;BME280;65071;53.082;18.218;2023-07-30T04:35:22;100482.89;;;18.37;86.61
75551;BME280;65071;53.082;18.218;2023-07-30T04:37:48;100483.79;;;18.40;86.64
75551;BME280;65071;53.082;18.218;2023-07-30T04:40:14;100487.02;;;18.43;86.78
75551;BME280;65071;53.082;18.218;2023-07-30T04:42:41;100493.02;;;18.46;86.61
75551;BME280;65071;53.082;18.218;2023-07-30T04:45:08;100496.93;;;18.50;86.56
75551;BME280;65071;53.082;18.218;2023-07-30T04:47:37;100498.52;;;18.52;86.71
75551;BME280;65071;53.082;18.218;2023-07-30T04:50:04;100493.95;;;18.55;86.59
75551;BME280;65071;53.082;18.218;2023-07-30T04:52:31;100497.14;;;18.61;86.57
75551;BME280;65071;53.082;18.218;2023-07-30T04:54:57;100496.08;;;18.69;86.69
75551;BME280;65071;53.082;18.218;2023-07-30T04:57:24;100497.70;;;18.77;86.62
75551;BME280;65071;53.082;18.218;2023-07-30T04:59:50;100499.55;;;18.83;86.54
75551;BME280;65071;53.082;18.218;2023-07-30T05:02:17;100496.84;;;18.88;86.54
75551;BME280;65071;53.082;18.218;2023-07-30T05:04:43;100500.27;;;18.91;86.56
75551;BME280;65071;53.082;18.218;2023-07-30T05:07:10;100503.69;;;18.94;86.40
75551;BME280;65071;53.082;18.218;2023-07-30T05:09:36;100503.48;;;18.95;86.56
75551;BME280;65071;53.082;18.218;2023-07-30T05:12:03;100502.98;;;18.98;86.40
75551;BME280;65071;53.082;18.218;2023-07-30T05:14:30;100502.81;;;19.00;86.44
75551;BME280;65071;53.082;18.218;2023-07-30T05:16:56;100507.30;;;19.03;86.50
75551;BME280;65071;53.082;18.218;2023-07-30T05:19:22;100506.53;;;19.05;86.56
75551;BME280;65071;53.082;18.218;2023-07-30T05:21:49;100508.00;;;19.07;86.44
75551;BME280;65071;53.082;18.218;2023-07-30T05:24:16;100510.77;;;19.11;86.46
75551;BME280;65071;53.082;18.218;2023-07-30T05:26:42;100510.55;;;19.14;86.40
75551;BME280;65071;53.082;18.218;2023-07-30T05:29:09;100509.88;;;19.16;86.24
75551;BME280;65071;53.082;18.218;2023-07-30T05:31:35;100506.66;;;19.19;85.97
75551;BME280;65071;53.082;18.218;2023-07-30T05:34:02;100509.25;;;19.23;86.13
75551;BME280;65071;53.082;18.218;2023-07-30T05:36:28;100511.06;;;19.26;86.05
75551;BME280;65071;53.082;18.218;2023-07-30T05:38:54;100514.92;;;19.35;85.88
75551;BME280;65071;53.082;18.218;2023-07-30T05:41:21;100515.95;;;19.48;85.69
75551;BME280;65071;53.082;18.218;2023-07-30T05:43:48;100517.06;;;19.63;85.62
75551;BME280;65071;53.082;18.218;2023-07-30T05:46:15;100521.42;;;19.76;85.27
75551;BME280;65071;53.082;18.218;2023-07-30T05:48:41;100522.73;;;19.84;85.01
75551;BME280;65071;53.082;18.218;2023-07-30T05:51:08;100527.36;;;19.91;84.74
75551;BME280;65071;53.082;18.218;2023-07-30T05:53:34;100530.53;;;19.97;84.65
75551;BME280;65071;53.082;18.218;2023-07-30T05:56:01;100523.03;;;20.04;84.85
75551;BME280;65071;53.082;18.218;2023-07-30T05:58:27;100525.39;;;20.12;84.41
75551;BME280;65071;53.082;18.218;2023-07-30T06:00:54;100524.97;;;20.22;84.19
75551;BME280;65071;53.082;18.218;2023-07-30T06:03:20;100524.09;;;20.28;84.06
75551;BME280;65071;53.082;18.218;2023-07-30T06:05:47;100520.71;;;20.35;83.41
75551;BME280;65071;53.082;18.218;2023-07-30T06:08:13;100524.81;;;20.44;83.32
75551;BME280;65071;53.082;18.218;2023-07-30T06:10:40;100525.75;;;20.52;82.94
75551;BME280;65071;53.082;18.218;2023-07-30T06:13:07;100524.27;;;20.61;82.54
75551;BME280;65071;53.082;18.218;2023-07-30T06:15:33;100524.91;;;20.73;82.06
75551;BME280;65071;53.082;18.218;2023-07-30T06:18:01;100521.08;;;20.86;82.14
75551;BME280;65071;53.082;18.218;2023-07-30T06:20:28;100523.89;;;21.02;81.50
75551;BME280;65071;53.082;18.218;2023-07-30T06:22:55;100524.62;;;21.19;81.53
75551;BME280;65071;53.082;18.218;2023-07-30T06:25:21;100528.85;;;21.33;80.57
75551;BME280;65071;53.082;18.218;2023-07-30T06:27:48;100534.66;;;21.42;80.51
75551;BME280;65071;53.082;18.218;2023-07-30T06:30:14;100533.84;;;21.51;80.48
75551;BME280;65071;53.082;18.218;2023-07-30T06:32:41;100531.93;;;21.65;80.00
75551;BME280;65071;53.082;18.218;2023-07-30T06:35:07;100529.52;;;21.82;79.50
75551;BME280;65071;53.082;18.218;2023-07-30T06:37:34;100529.58;;;21.95;79.03
75551;BME280;65071;53.082;18.218;2023-07-30T06:40:00;100526.38;;;22.06;78.71
75551;BME280;65071;53.082;18.218;2023-07-30T06:42:30;100525.06;;;22.10;77.89
75551;BME280;65071;53.082;18.218;2023-07-30T06:44:56;100520.55;;;22.14;77.43
75551;BME280;65071;53.082;18.218;2023-07-30T06:47:23;100524.48;;;22.25;76.60
75551;BME280;65071;53.082;18.218;2023-07-30T06:49:50;100526.65;;;22.33;77.72
75551;BME280;65071;53.082;18.218;2023-07-30T06:52:16;100527.48;;;22.34;77.21
75551;BME280;65071;53.082;18.218;2023-07-30T06:54:43;100530.69;;;22.27;75.67
75551;BME280;65071;53.082;18.218;2023-07-30T06:57:09;100528.56;;;22.32;76.10
75551;BME280;65071;53.082;18.218;2023-07-30T06:59:36;100525.67;;;22.41;74.85
75551;BME280;65071;53.082;18.218;2023-07-30T07:02:02;100524.79;;;22.52;74.13
75551;BME280;65071;53.082;18.218;2023-07-30T07:04:29;100528.60;;;22.69;74.67
75551;BME280;65071;53.082;18.218;2023-07-30T07:06:55;100530.61;;;22.82;73.19
75551;BME280;65071;53.082;18.218;2023-07-30T07:09:22;100532.42;;;22.89;73.89
75551;BME280;65071;53.082;18.218;2023-07-30T07:11:48;100532.64;;;22.94;74.24
75551;BME280;65071;53.082;18.218;2023-07-30T07:14:15;100531.23;;;23.05;73.26
75551;BME280;65071;53.082;18.218;2023-07-30T07:16:41;100526.27;;;23.23;72.28
75551;BME280;65071;53.082;18.218;2023-07-30T07:19:08;100520.19;;;23.38;71.98
75551;BME280;65071;53.082;18.218;2023-07-30T07:21:34;100523.45;;;23.48;71.76
75551;BME280;65071;53.082;18.218;2023-07-30T07:24:01;100525.58;;;23.58;70.08
75551;BME280;65071;53.082;18.218;2023-07-30T07:26:27;100524.14;;;23.62;70.65
75551;BME280;65071;53.082;18.218;2023-07-30T07:28:55;100524.23;;;23.59;69.37
75551;BME280;65071;53.082;18.218;2023-07-30T07:31:22;100531.17;;;23.64;69.22
75551;BME280;65071;53.082;18.218;2023-07-30T07:33:49;100533.88;;;23.86;70.32
75551;BME280;65071;53.082;18.218;2023-07-30T07:36:15;100536.13;;;24.02;68.40
75551;BME280;65071;53.082;18.218;2023-07-30T07:38:42;100533.17;;;24.04;67.04
75551;BME280;65071;53.082;18.218;2023-07-30T07:41:14;100533.56;;;24.01;67.90
75551;BME280;65071;53.082;18.218;2023-07-30T07:43:45;100533.52;;;23.87;67.82
75551;BME280;65071;53.082;18.218;2023-07-30T07:46:12;100536.68;;;23.75;68.75
75551;BME280;65071;53.082;18.218;2023-07-30T07:48:43;100542.11;;;23.60;68.41
75551;BME280;65071;53.082;18.218;2023-07-30T07:51:11;100544.40;;;23.54;69.29
75551;BME280;65071;53.082;18.218;2023-07-30T07:53:38;100546.88;;;23.51;69.00
75551;BME280;65071;53.082;18.218;2023-07-30T07:56:05;100549.05;;;23.50;68.78
75551;BME280;65071;53.082;18.218;2023-07-30T07:58:31;100550.13;;;23.44;67.78
75551;BME280;65071;53.082;18.218;2023-07-30T08:00:59;100548.73;;;23.36;68.03
75551;BME280;65071;53.082;18.218;2023-07-30T08:03:26;100547.40;;;23.36;67.02
75551;BME280;65071;53.082;18.218;2023-07-30T08:05:55;100551.81;;;23.41;67.15
75551;BME280;65071;53.082;18.218;2023-07-30T08:08:24;100553.98;;;23.52;67.22
75551;BME280;65071;53.082;18.218;2023-07-30T08:10:50;100553.42;;;23.56;66.57
75551;BME280;65071;53.082;18.218;2023-07-30T08:13:17;100555.98;;;23.65;66.92
75551;BME280;65071;53.082;18.218;2023-07-30T08:15:43;100556.21;;;23.63;64.91
75551;BME280;65071;53.082;18.218;2023-07-30T08:18:10;100559.44;;;23.69;66.19
75551;BME280;65071;53.082;18.218;2023-07-30T08:20:36;100561.54;;;23.80;66.24
75551;BME280;65071;53.082;18.218;2023-07-30T08:23:03;100561.20;;;23.80;64.69
75551;BME280;65071;53.082;18.218;2023-07-30T08:25:30;100560.92;;;23.75;64.94
75551;BME280;65071;53.082;18.218;2023-07-30T08:27:56;100561.09;;;23.77;64.95
75551;BME280;65071;53.082;18.218;2023-07-30T08:30:23;100566.59;;;23.84;66.11
75551;BME280;65071;53.082;18.218;2023-07-30T08:32:49;100568.25;;;23.85;66.11
75551;BME280;65071;53.082;18.218;2023-07-30T08:35:16;100569.45;;;23.87;65.24
75551;BME280;65071;53.082;18.218;2023-07-30T08:37:42;100571.88;;;23.95;65.74
75551;BME280;65071;53.082;18.218;2023-07-30T08:40:09;100572.77;;;24.11;64.89
75551;BME280;65071;53.082;18.218;2023-07-30T08:42:36;100571.31;;;24.30;63.88
75551;BME280;65071;53.082;18.218;2023-07-30T08:45:05;100574.05;;;24.51;63.09
75551;BME280;65071;53.082;18.218;2023-07-30T08:47:32;100577.83;;;24.71;63.39
75551;BME280;65071;53.082;18.218;2023-07-30T08:49:58;100576.81;;;24.73;62.03
75551;BME280;65071;53.082;18.218;2023-07-30T08:52:26;100580.38;;;24.77;62.37
75551;BME280;65071;53.082;18.218;2023-07-30T08:54:54;100580.52;;;24.70;61.94
75551;BME280;65071;53.082;18.218;2023-07-30T08:57:22;100581.84;;;24.78;61.88
75551;BME280;65071;53.082;18.218;2023-07-30T08:59:54;100580.10;;;24.83;60.38
75551;BME280;65071;53.082;18.218;2023-07-30T09:02:39;100578.02;;;25.01;60.60
75551;BME280;65071;53.082;18.218;2023-07-30T09:05:08;100574.42;;;25.21;60.24
75551;BME280;65071;53.082;18.218;2023-07-30T09:07:35;100569.96;;;25.29;57.76
75551;BME280;65071;53.082;18.218;2023-07-30T09:10:01;100568.61;;;25.26;56.06
75551;BME280;65071;53.082;18.218;2023-07-30T09:12:30;100563.55;;;25.29;57.94
75551;BME280;65071;53.082;18.218;2023-07-30T09:14:57;100559.41;;;25.30;57.11
75551;BME280;65071;53.082;18.218;2023-07-30T09:17:24;100561.11;;;25.36;56.93
75551;BME280;65071;53.082;18.218;2023-07-30T09:19:52;100567.56;;;25.48;57.48
75551;BME280;65071;53.082;18.218;2023-07-30T09:22:26;100563.15;;;25.60;55.36
75551;BME280;65071;53.082;18.218;2023-07-30T09:24:57;100565.64;;;25.68;54.68
75551;BME280;65071;53.082;18.218;2023-07-30T09:27:25;100569.45;;;25.73;55.34
75551;BME280;65071;53.082;18.218;2023-07-30T09:29:54;100575.13;;;25.76;55.99
75551;BME280;65071;53.082;18.218;2023-07-30T09:32:25;100583.48;;;25.98;55.77
75551;BME280;65071;53.082;18.218;2023-07-30T09:34:52;100582.83;;;26.07;55.51
75551;BME280;65071;53.082;18.218;2023-07-30T09:37:19;100583.52;;;26.17;55.44
75551;BME280;65071;53.082;18.218;2023-07-30T09:39:49;100582.91;;;26.26;54.65
75551;BME280;65071;53.082;18.218;2023-07-30T09:42:15;100584.52;;;26.26;55.06
75551;BME280;65071;53.082;18.218;2023-07-30T09:44:46;100584.41;;;26.36;54.96
75551;BME280;65071;53.082;18.218;2023-07-30T09:47:13;100586.00;;;26.40;53.93
75551;BME280;65071;53.082;18.218;2023-07-30T09:49:39;100584.80;;;26.43;54.16
75551;BME280;65071;53.082;18.218;2023-07-30T09:52:06;100583.29;;;26.36;54.40
75551;BME280;65071;53.082;18.218;2023-07-30T09:54:33;100587.38;;;26.41;53.96
75551;BME280;65071;53.082;18.218;2023-07-30T09:56:59;100592.52;;;26.34;54.16
75551;BME280;65071;53.082;18.218;2023-07-30T09:59:26;100589.80;;;26.50;55.20
75551;BME280;65071;53.082;18.218;2023-07-30T10:01:53;100592.89;;;26.80;53.98
75551;BME280;65071;53.082;18.218;2023-07-30T10:04:22;100594.74;;;27.01;53.30
75551;BME280;65071;53.082;18.218;2023-07-30T10:06:53;100594.26;;;27.10;53.05
75551;BME280;65071;53.082;18.218;2023-07-30T10:09:23;100589.80;;;27.22;52.31
75551;BME280;65071;53.082;18.218;2023-07-30T10:11:53;100586.84;;;27.11;51.37
75551;BME280;65071;53.082;18.218;2023-07-30T10:14:22;100585.37;;;27.06;51.46
75551;BME280;65071;53.082;18.218;2023-07-30T10:16:54;100581.86;;;26.85;52.00
75551;BME280;65071;53.082;18.218;2023-07-30T10:19:28;100575.47;;;26.78;52.06
75551;BME280;65071;53.082;18.218;2023-07-30T10:22:21;100573.29;;;26.80;52.45
75551;BME280;65071;53.082;18.218;2023-07-30T10:25:01;100573.65;;;27.03;53.01
75551;BME280;65071;53.082;18.218;2023-07-30T10:27:40;100574.31;;;27.28;52.58
75551;BME280;65071;53.082;18.218;2023-07-30T10:30:14;100579.76;;;27.49;51.35
75551;BME280;65071;53.082;18.218;2023-07-30T10:32:42;100579.67;;;27.54;50.38
75551;BME280;65071;53.082;18.218;2023-07-30T10:35:08;100576.32;;;27.59;50.37
75551;BME280;65071;53.082;18.218;2023-07-30T10:37:35;100577.70;;;27.66;50.13
75551;BME280;65071;53.082;18.218;2023-07-30T10:40:15;100578.80;;;27.76;50.11
75551;BME280;65071;53.082;18.218;2023-07-30T10:42:42;100579.13;;;27.76;49.37
75551;BME280;65071;53.082;18.218;2023-07-30T10:45:09;100581.13;;;27.65;49.62
75551;BME280;65071;53.082;18.218;2023-07-30T10:47:35;100577.27;;;27.69;49.21
75551;BME280;65071;53.082;18.218;2023-07-30T10:50:02;100578.85;;;27.63;49.37
75551;BME280;65071;53.082;18.218;2023-07-30T10:52:29;100580.15;;;27.61;49.40
75551;BME280;65071;53.082;18.218;2023-07-30T10:55:01;100582.27;;;27.62;48.66
75551;BME280;65071;53.082;18.218;2023-07-30T10:57:31;100582.44;;;27.62;48.84
75551;BME280;65071;53.082;18.218;2023-07-30T11:00:00;100577.26;;;27.58;48.84
75551;BME280;65071;53.082;18.218;2023-07-30T11:02:28;100572.37;;;27.57;49.38
75551;BME280;65071;53.082;18.218;2023-07-30T11:04:56;100571.55;;;27.58;49.56
75551;BME280;65071;53.082;18.218;2023-07-30T11:07:22;100572.95;;;27.62;48.38
75551;BME280;65071;53.082;18.218;2023-07-30T11:09:58;100572.54;;;27.66;48.94
75551;BME280;65071;53.082;18.218;2023-07-30T11:12:25;100571.06;;;27.69;48.96
75551;BME280;65071;53.082;18.218;2023-07-30T11:15:00;100568.77;;;27.68;48.53
75551;BME280;65071;53.082;18.218;2023-07-30T11:17:26;100570.31;;;27.55;48.17
75551;BME280;65071;53.082;18.218;2023-07-30T11:19:53;100569.42;;;27.46;48.20
75551;BME280;65071;53.082;18.218;2023-07-30T11:22:32;100563.71;;;27.39;47.24
75551;BME280;65071;53.082;18.218;2023-07-30T11:24:59;100562.96;;;27.35;48.22
75551;BME280;65071;53.082;18.218;2023-07-30T11:27:27;100560.68;;;27.38;48.22
75551;BME280;65071;53.082;18.218;2023-07-30T11:29:55;100561.85;;;27.28;47.61
75551;BME280;65071;53.082;18.218;2023-07-30T11:32:22;100560.73;;;27.15;47.35
75551;BME280;65071;53.082;18.218;2023-07-30T11:34:52;100555.98;;;27.08;48.71
75551;BME280;65071;53.082;18.218;2023-07-30T11:37:21;100551.72;;;27.13;48.91
75551;BME280;65071;53.082;18.218;2023-07-30T11:39:48;100552.10;;;27.18;48.75
75551;BME280;65071;53.082;18.218;2023-07-30T11:42:15;100556.80;;;27.18;48.31
75551;BME280;65071;53.082;18.218;2023-07-30T11:44:41;100554.53;;;27.18;48.64
75551;BME280;65071;53.082;18.218;2023-07-30T11:47:08;100551.04;;;27.26;48.82
75551;BME280;65071;53.082;18.218;2023-07-30T11:49:38;100553.33;;;27.29;47.77
75551;BME280;65071;53.082;18.218;2023-07-30T11:52:06;100552.91;;;27.32;47.23
75551;BME280;65071;53.082;18.218;2023-07-30T11:54:34;100549.50;;;27.34;45.82
75551;BME280;65071;53.082;18.218;2023-07-30T11:57:00;100551.28;;;27.43;46.62
75551;BME280;65071;53.082;18.218;2023-07-30T11:59:27;100547.29;;;27.44;46.59
75551;BME280;65071;53.082;18.218;2023-07-30T12:01:54;100538.39;;;27.47;45.32
75551;BME280;65071;53.082;18.218;2023-07-30T12:04:20;100538.38;;;27.54;45.25
75551;BME280;65071;53.082;18.218;2023-07-30T12:06:48;100535.15;;;27.44;44.91
75551;BME280;65071;53.082;18.218;2023-07-30T12:12:04;100524.22;;;27.50;45.07
75551;BME280;65071;53.082;18.218;2023-07-30T12:17:13;100524.20;;;27.48;44.65
75551;BME280;65071;53.082;18.218;2023-07-30T12:19:39;100520.91;;;27.53;43.83
75551;BME280;65071;53.082;18.218;2023-07-30T12:22:07;100516.59;;;27.53;43.07
75551;BME280;65071;53.082;18.218;2023-07-30T12:24:33;100512.88;;;27.56;43.96
75551;BME280;65071;53.082;18.218;2023-07-30T12:27:00;100513.07;;;27.61;43.74
75551;BME280;65071;53.082;18.218;2023-07-30T12:29:27;100513.05;;;27.67;42.65
75551;BME280;65071;53.082;18.218;2023-07-30T12:31:54;100512.08;;;27.75;42.61
75551;BME280;65071;53.082;18.218;2023-07-30T12:34:23;100511.14;;;27.77;42.64
75551;BME280;65071;53.082;18.218;2023-07-30T12:36:49;100506.06;;;27.82;43.22
75551;BME280;65071;53.082;18.218;2023-07-30T12:39:16;100503.30;;;27.88;42.78
75551;BME280;65071;53.082;18.218;2023-07-30T12:41:42;100500.98;;;27.95;42.34
75551;BME280;65071;53.082;18.218;2023-07-30T12:44:09;100497.56;;;27.97;41.19
75551;BME280;65071;53.082;18.218;2023-07-30T12:46:36;100493.80;;;27.98;41.66
75551;BME280;65071;53.082;18.218;2023-07-30T12:49:02;100495.00;;;28.01;41.03